createdAt,value
2017-12-22T00:00:13.378Z,69.02
2017-12-22T00:00:48.759Z,69.60
2017-12-22T00:01:24.277Z,69.98
2017-12-22T00:01:59.786Z,70.07
2017-12-22T00:02:35.268Z,69.60
2017-12-22T00:03:10.773Z,69.88
2017-12-22T00:03:46.194Z,69.50
2017-12-22T00:04:21.318Z,69.88
2017-12-22T00:04:56.817Z,69.79
2017-12-22T00:05:32.133Z,70.07
2017-12-22T00:06:07.605Z,70.17
2017-12-22T00:06:42.905Z,70.26
2017-12-22T00:07:18.521Z,70.07
2017-12-22T00:07:53.598Z,69.98
2017-12-22T00:08:28.803Z,69.69
2017-12-22T00:09:04.028Z,70.36
2017-12-22T00:09:39.438Z,69.69
2017-12-22T00:10:15.106Z,70.36
2017-12-22T00:10:50.828Z,70.07
2017-12-22T00:11:26.128Z,69.21
2017-12-22T00:12:01.534Z,69.50
2017-12-22T00:12:36.546Z,69.60
2017-12-22T00:13:11.919Z,70.45
2017-12-22T00:13:47.338Z,70.26
2017-12-22T00:14:22.746Z,70.54
2017-12-22T00:14:58.462Z,70.17
2017-12-22T00:15:33.643Z,69.60
2017-12-22T00:16:08.657Z,70.07
2017-12-22T00:16:43.936Z,70.26
2017-12-22T00:17:19.336Z,69.60
2017-12-22T00:17:54.522Z,70.07
2017-12-22T00:18:30.118Z,69.69
2017-12-22T00:19:05.643Z,70.36
2017-12-22T00:19:41.144Z,70.07
2017-12-22T00:20:16.874Z,70.74
2017-12-22T00:20:52.161Z,70.93
2017-12-22T00:21:27.573Z,71.41
2017-12-22T00:22:02.850Z,70.83
2017-12-22T00:22:38.455Z,70.45
2017-12-22T00:23:13.840Z,70.45
2017-12-22T00:23:49.340Z,70.93
2017-12-22T00:24:24.744Z,70.83
2017-12-22T00:24:59.868Z,70.74
2017-12-22T00:25:35.075Z,70.54
2017-12-22T00:26:10.455Z,70.64
2017-12-22T00:26:45.960Z,70.45
2017-12-22T00:27:21.346Z,70.64
2017-12-22T00:27:56.655Z,70.93
2017-12-22T00:28:31.935Z,70.26
2017-12-22T00:29:07.343Z,69.98
2017-12-22T00:29:42.760Z,69.98
2017-12-22T00:30:18.180Z,69.88
2017-12-22T00:30:53.788Z,70.07
2017-12-22T00:31:29.166Z,69.98
2017-12-22T00:32:04.469Z,70.17
2017-12-22T00:32:40.060Z,70.07
2017-12-22T00:33:15.461Z,69.88
2017-12-22T00:33:50.735Z,70.26
2017-12-22T00:34:26.347Z,69.88
2017-12-22T00:35:01.457Z,69.69
2017-12-22T00:35:37.050Z,69.21
2017-12-22T00:36:12.660Z,69.60
2017-12-22T00:36:48.139Z,69.60
2017-12-22T00:37:23.344Z,69.79
2017-12-22T00:37:58.915Z,69.79
2017-12-22T00:38:34.137Z,69.98
2017-12-22T00:39:09.410Z,69.12
2017-12-22T00:39:44.812Z,69.21
2017-12-22T00:40:20.087Z,69.02
2017-12-22T00:40:55.430Z,68.84
2017-12-22T00:41:30.938Z,69.41
2017-12-22T00:42:06.621Z,69.02
2017-12-22T00:42:41.820Z,69.21
2017-12-22T00:43:17.442Z,68.93
2017-12-22T00:43:52.950Z,68.93
2017-12-22T00:44:28.229Z,68.55
2017-12-22T00:45:03.695Z,68.65
2017-12-22T00:45:39.060Z,68.74
2017-12-22T00:46:14.398Z,68.93
2017-12-22T00:46:49.915Z,68.17
2017-12-22T00:47:25.282Z,68.17
2017-12-22T00:48:00.680Z,68.27
2017-12-22T00:48:35.956Z,68.46
2017-12-22T00:49:11.372Z,68.36
2017-12-22T00:49:46.947Z,68.27
2017-12-22T00:50:22.052Z,68.36
2017-12-22T00:50:57.830Z,68.27
2017-12-22T00:51:33.262Z,68.27
2017-12-22T00:52:08.589Z,68.27
2017-12-22T00:52:43.848Z,68.27
2017-12-22T00:53:19.265Z,68.27
2017-12-22T00:53:54.346Z,68.17
2017-12-22T00:54:29.489Z,68.07
2017-12-22T00:55:04.867Z,68.07
2017-12-22T00:55:40.361Z,67.79
2017-12-22T00:56:15.846Z,67.60
2017-12-22T00:56:51.073Z,67.98
2017-12-22T00:57:26.193Z,68.36
2017-12-22T00:58:01.387Z,68.17
2017-12-22T00:58:36.793Z,68.46
2017-12-22T00:59:12.374Z,67.60
2017-12-22T00:59:47.779Z,67.60
2017-12-22T01:00:23.257Z,67.69
2017-12-22T01:00:58.457Z,67.69
2017-12-22T01:01:33.947Z,67.79
2017-12-22T01:02:09.587Z,67.88
2017-12-22T01:02:44.859Z,67.88
2017-12-22T01:03:20.365Z,67.22
2017-12-22T01:03:56.185Z,67.32
2017-12-22T01:04:31.442Z,68.07
2017-12-22T01:05:07.340Z,67.69
2017-12-22T01:05:42.618Z,67.88
2017-12-22T01:06:18.029Z,67.79
2017-12-22T01:06:53.318Z,67.98
2017-12-22T01:07:28.575Z,68.07
2017-12-22T01:08:04.066Z,67.88
2017-12-22T01:08:39.473Z,67.13
2017-12-22T01:09:14.876Z,67.32
2017-12-22T01:09:49.962Z,67.32
2017-12-22T01:10:25.362Z,67.60
2017-12-22T01:11:00.937Z,67.69
2017-12-22T01:11:36.450Z,67.69
2017-12-22T01:12:11.626Z,67.32
2017-12-22T01:12:46.953Z,67.32
2017-12-22T01:13:22.136Z,67.22
2017-12-22T01:13:57.240Z,67.50
2017-12-22T01:14:32.949Z,67.50
2017-12-22T01:15:08.443Z,67.41
2017-12-22T01:15:43.949Z,67.41
2017-12-22T01:16:19.528Z,67.41
2017-12-22T01:16:54.729Z,67.79
2017-12-22T01:17:29.956Z,67.60
2017-12-22T01:18:05.543Z,67.60
2017-12-22T01:18:40.919Z,68.17
2017-12-22T01:19:16.225Z,67.60
2017-12-22T01:19:51.631Z,68.07
2017-12-22T01:20:26.983Z,67.60
2017-12-22T01:21:02.396Z,68.17
2017-12-22T01:21:37.677Z,67.88
2017-12-22T01:22:12.879Z,67.60
2017-12-22T01:22:47.959Z,68.27
2017-12-22T01:23:23.796Z,68.46
2017-12-22T01:23:59.486Z,67.60
2017-12-22T01:24:34.995Z,67.79
2017-12-22T01:25:10.274Z,67.41
2017-12-22T01:25:45.686Z,67.98
2017-12-22T01:26:21.093Z,67.32
2017-12-22T01:26:56.462Z,67.50
2017-12-22T01:27:31.971Z,67.32
2017-12-22T01:28:07.458Z,67.79
2017-12-22T01:28:42.785Z,67.88
2017-12-22T01:29:18.536Z,67.60
2017-12-22T01:29:53.847Z,67.50
2017-12-22T01:30:29.026Z,67.32
2017-12-22T01:31:04.234Z,67.60
2017-12-22T01:31:39.842Z,67.60
2017-12-22T01:32:15.117Z,67.50
2017-12-22T01:32:50.415Z,67.69
2017-12-22T01:33:25.700Z,67.60
2017-12-22T01:34:01.240Z,67.50
2017-12-22T01:34:36.723Z,67.60
2017-12-22T01:35:12.128Z,67.60
2017-12-22T01:35:47.505Z,67.79
2017-12-22T01:36:22.906Z,67.41
2017-12-22T01:36:58.113Z,67.60
2017-12-22T01:37:33.494Z,67.50
2017-12-22T01:38:08.796Z,67.50
2017-12-22T01:38:44.381Z,67.50
2017-12-22T01:39:20.022Z,67.69
2017-12-22T01:39:55.304Z,67.50
2017-12-22T01:40:30.603Z,67.32
2017-12-22T01:41:06.175Z,67.32
2017-12-22T01:41:41.283Z,67.41
2017-12-22T01:42:16.798Z,67.22
2017-12-22T01:42:52.252Z,67.22
2017-12-22T01:43:27.493Z,67.32
2017-12-22T01:44:03.066Z,67.50
2017-12-22T01:44:38.601Z,67.32
2017-12-22T01:45:13.876Z,67.60
2017-12-22T01:45:49.179Z,67.32
2017-12-22T01:46:24.646Z,67.50
2017-12-22T01:46:59.845Z,67.60
2017-12-22T01:47:35.328Z,67.98
2017-12-22T01:48:10.828Z,67.98
2017-12-22T01:48:46.231Z,67.32
2017-12-22T01:49:21.431Z,67.32
2017-12-22T01:49:56.766Z,67.50
2017-12-22T01:50:32.041Z,67.50
2017-12-22T01:51:07.641Z,67.32
2017-12-22T01:51:43.115Z,67.69
2017-12-22T01:52:18.416Z,67.50
2017-12-22T01:52:53.899Z,67.50
2017-12-22T01:53:29.199Z,67.22
2017-12-22T01:54:04.711Z,67.50
2017-12-22T01:54:40.297Z,67.50
2017-12-22T01:55:15.525Z,67.60
2017-12-22T01:55:51.007Z,67.88
2017-12-22T01:56:26.403Z,67.32
2017-12-22T01:57:01.583Z,67.69
2017-12-22T01:57:36.988Z,67.50
2017-12-22T01:58:12.070Z,67.50
2017-12-22T01:58:47.271Z,67.41
2017-12-22T01:59:22.574Z,67.88
2017-12-22T01:59:57.854Z,67.50
2017-12-22T02:00:33.407Z,67.32
2017-12-22T02:01:08.992Z,67.88
2017-12-22T02:01:44.493Z,67.88
2017-12-22T02:02:19.880Z,67.98
2017-12-22T02:02:55.278Z,67.44
2017-12-22T02:03:30.459Z,67.88
2017-12-22T02:04:05.568Z,67.88
2017-12-22T02:04:40.892Z,68.07
2017-12-22T02:05:16.296Z,67.98
2017-12-22T02:05:51.430Z,68.40
2017-12-22T02:06:26.817Z,67.79
2017-12-22T02:07:02.317Z,67.88
2017-12-22T02:07:37.807Z,68.07
2017-12-22T02:08:13.202Z,68.07
2017-12-22T02:08:48.487Z,68.55
2017-12-22T02:09:23.898Z,68.27
2017-12-22T02:09:59.176Z,68.46
2017-12-22T02:10:34.519Z,67.54
2017-12-22T02:11:10.253Z,67.92
2017-12-22T02:11:45.730Z,68.11
2017-12-22T02:12:21.035Z,67.60
2017-12-22T02:12:56.508Z,68.21
2017-12-22T02:13:31.926Z,68.07
2017-12-22T02:14:07.100Z,67.63
2017-12-22T02:14:42.610Z,67.54
2017-12-22T02:15:17.894Z,67.73
2017-12-22T02:15:53.108Z,68.30
2017-12-22T02:16:28.346Z,67.50
2017-12-22T02:17:03.727Z,68.27
2017-12-22T02:17:39.035Z,68.17
2017-12-22T02:18:14.745Z,67.63
2017-12-22T02:18:49.864Z,67.63
2017-12-22T02:19:25.056Z,67.60
2017-12-22T02:20:00.664Z,67.63
2017-12-22T02:20:35.877Z,68.30
2017-12-22T02:21:11.290Z,67.88
2017-12-22T02:21:46.780Z,68.11
2017-12-22T02:22:22.270Z,68.17
2017-12-22T02:22:57.884Z,68.36
2017-12-22T02:23:33.172Z,68.11
2017-12-22T02:24:08.378Z,68.49
2017-12-22T02:24:43.678Z,68.49
2017-12-22T02:25:19.190Z,68.68
2017-12-22T02:25:54.585Z,68.40
2017-12-22T02:26:30.005Z,68.40
2017-12-22T02:27:05.573Z,68.36
2017-12-22T02:27:40.875Z,68.36
2017-12-22T02:28:16.351Z,68.21
2017-12-22T02:28:51.531Z,67.92
2017-12-22T02:29:26.648Z,68.68
2017-12-22T02:30:02.258Z,68.30
2017-12-22T02:30:37.682Z,68.27
2017-12-22T02:31:13.076Z,68.21
2017-12-22T02:31:48.573Z,68.49
2017-12-22T02:32:24.106Z,67.98
2017-12-22T02:32:59.632Z,68.55
2017-12-22T02:33:35.044Z,68.55
2017-12-22T02:34:11.516Z,67.98
2017-12-22T02:34:46.923Z,68.21
2017-12-22T02:35:22.314Z,68.40
2017-12-22T02:35:57.722Z,68.27
2017-12-22T02:36:33.216Z,68.46
2017-12-22T02:37:08.727Z,68.30
2017-12-22T02:37:44.028Z,68.40
2017-12-22T02:38:19.064Z,69.21
2017-12-22T02:38:54.484Z,69.21
2017-12-22T02:39:30.073Z,68.74
2017-12-22T02:40:05.673Z,68.96
2017-12-22T02:40:41.056Z,69.15
2017-12-22T02:41:16.357Z,69.06
2017-12-22T02:41:51.544Z,68.59
2017-12-22T02:42:26.883Z,68.68
2017-12-22T02:43:02.549Z,68.74
2017-12-22T02:43:37.758Z,68.59
2017-12-22T02:44:13.266Z,68.74
2017-12-22T02:44:48.454Z,68.96
2017-12-22T02:45:23.760Z,69.15
2017-12-22T02:45:58.953Z,68.68
2017-12-22T02:46:34.779Z,68.96
2017-12-22T02:47:10.267Z,69.25
2017-12-22T02:47:45.896Z,69.06
2017-12-22T02:48:21.477Z,69.15
2017-12-22T02:48:56.983Z,69.15
2017-12-22T02:49:32.094Z,69.06
2017-12-22T02:50:07.685Z,69.25
2017-12-22T02:50:42.999Z,69.12
2017-12-22T02:51:18.288Z,69.06
2017-12-22T02:51:53.703Z,69.15
2017-12-22T02:52:29.283Z,69.15
2017-12-22T02:53:04.814Z,69.15
2017-12-22T02:53:39.899Z,69.02
2017-12-22T02:54:15.108Z,69.21
2017-12-22T02:54:50.649Z,69.21
2017-12-22T02:55:26.232Z,69.15
2017-12-22T02:56:01.742Z,69.31
2017-12-22T02:56:37.219Z,69.06
2017-12-22T02:57:12.638Z,68.93
2017-12-22T02:57:48.394Z,69.12
2017-12-22T02:58:23.633Z,69.02
2017-12-22T02:58:58.919Z,68.77
2017-12-22T02:59:34.379Z,68.68
2017-12-22T03:00:09.903Z,68.77
2017-12-22T03:00:45.482Z,68.59
2017-12-22T03:01:20.991Z,68.65
2017-12-22T03:01:56.076Z,69.12
2017-12-22T03:02:31.683Z,69.06
2017-12-22T03:03:06.795Z,69.02
2017-12-22T03:03:42.296Z,69.21
2017-12-22T03:04:18.079Z,68.96
2017-12-22T03:04:53.684Z,69.06
2017-12-22T03:05:28.976Z,68.93
2017-12-22T03:06:04.391Z,69.31
2017-12-22T03:06:39.532Z,69.06
2017-12-22T03:07:14.721Z,69.31
2017-12-22T03:07:50.154Z,69.15
2017-12-22T03:08:25.338Z,69.25
2017-12-22T03:09:00.642Z,69.35
2017-12-22T03:09:35.825Z,68.96
2017-12-22T03:10:11.026Z,69.15
2017-12-22T03:10:46.811Z,69.06
2017-12-22T03:11:22.023Z,68.68
2017-12-22T03:11:57.236Z,68.77
2017-12-22T03:12:32.623Z,68.96
2017-12-22T03:13:08.057Z,68.77
2017-12-22T03:13:43.341Z,68.68
2017-12-22T03:14:18.757Z,68.68
2017-12-22T03:14:54.043Z,68.96
2017-12-22T03:15:29.369Z,68.96
2017-12-22T03:16:04.654Z,68.49
2017-12-22T03:16:39.865Z,68.96
2017-12-22T03:17:15.080Z,68.59
2017-12-22T03:17:50.388Z,68.27
2017-12-22T03:18:25.692Z,68.30
2017-12-22T03:19:01.175Z,68.30
2017-12-22T03:19:36.486Z,68.11
2017-12-22T03:20:11.784Z,68.36
2017-12-22T03:20:47.287Z,68.21
2017-12-22T03:21:22.379Z,68.21
2017-12-22T03:21:58.174Z,68.40
2017-12-22T03:22:33.653Z,68.11
2017-12-22T03:23:09.083Z,68.21
2017-12-22T03:23:44.489Z,68.59
2017-12-22T03:24:19.771Z,68.11
2017-12-22T03:24:55.583Z,68.30
2017-12-22T03:25:31.359Z,68.40
2017-12-22T03:26:06.767Z,68.59
2017-12-22T03:26:42.151Z,68.21
2017-12-22T03:27:17.466Z,68.11
2017-12-22T03:27:52.755Z,68.40
2017-12-22T03:28:28.423Z,68.49
2017-12-22T03:29:04.040Z,68.49
2017-12-22T03:29:39.626Z,68.30
2017-12-22T03:30:15.335Z,68.36
2017-12-22T03:30:50.520Z,68.46
2017-12-22T03:31:25.827Z,68.59
2017-12-22T03:32:01.023Z,68.40
2017-12-22T03:32:36.433Z,68.49
2017-12-22T03:33:11.841Z,68.07
2017-12-22T03:33:47.240Z,68.30
2017-12-22T03:34:22.658Z,68.36
2017-12-22T03:34:57.657Z,68.46
2017-12-22T03:35:33.272Z,68.40
2017-12-22T03:36:08.559Z,68.07
2017-12-22T03:36:43.969Z,68.21
2017-12-22T03:37:19.466Z,68.01
2017-12-22T03:37:55.162Z,68.11
2017-12-22T03:38:30.469Z,67.44
2017-12-22T03:39:05.875Z,67.88
2017-12-22T03:39:41.495Z,68.49
2017-12-22T03:40:16.780Z,67.82
2017-12-22T03:40:52.092Z,67.54
2017-12-22T03:41:27.286Z,67.54
2017-12-22T03:42:02.495Z,68.01
2017-12-22T03:42:37.773Z,67.92
2017-12-22T03:43:13.306Z,67.82
2017-12-22T03:43:48.784Z,67.73
2017-12-22T03:44:24.190Z,67.73
2017-12-22T03:44:59.795Z,67.82
2017-12-22T03:45:35.087Z,68.21
2017-12-22T03:46:10.591Z,68.49
2017-12-22T03:46:46.070Z,68.21
2017-12-22T03:47:21.678Z,68.68
2017-12-22T03:47:57.057Z,68.77
2017-12-22T03:48:32.291Z,68.68
2017-12-22T03:49:07.473Z,68.68
2017-12-22T03:49:42.585Z,68.30
2017-12-22T03:50:17.761Z,68.30
2017-12-22T03:50:52.968Z,68.96
2017-12-22T03:51:28.378Z,68.68
2017-12-22T03:52:03.562Z,68.68
2017-12-22T03:52:38.884Z,68.77
2017-12-22T03:53:14.162Z,68.68
2017-12-22T03:53:49.501Z,68.68
2017-12-22T03:54:24.885Z,68.59
2017-12-22T03:55:00.195Z,68.30
2017-12-22T03:55:35.385Z,68.11
2017-12-22T03:56:10.814Z,68.21
2017-12-22T03:56:46.037Z,68.40
2017-12-22T03:57:21.357Z,68.40
2017-12-22T03:57:56.548Z,68.30
2017-12-22T03:58:31.859Z,68.49
2017-12-22T03:59:07.163Z,68.49
2017-12-22T03:59:42.555Z,68.30
2017-12-22T04:00:17.672Z,68.40
2017-12-22T04:00:53.156Z,68.49
2017-12-22T04:01:28.465Z,68.59
2017-12-22T04:02:03.997Z,68.21
2017-12-22T04:02:39.567Z,68.77
2017-12-22T04:03:14.774Z,68.96
2017-12-22T04:03:50.192Z,68.87
2017-12-22T04:04:25.519Z,68.96
2017-12-22T04:05:01.107Z,68.87
2017-12-22T04:05:36.514Z,68.96
2017-12-22T04:06:11.809Z,68.77
2017-12-22T04:06:46.816Z,68.68
2017-12-22T04:07:22.335Z,69.06
2017-12-22T04:07:57.652Z,69.15
2017-12-22T04:08:32.787Z,69.15
2017-12-22T04:09:08.079Z,69.12
2017-12-22T04:09:43.582Z,69.06
2017-12-22T04:10:18.876Z,68.87
2017-12-22T04:10:54.087Z,69.06
2017-12-22T04:11:29.575Z,68.68
2017-12-22T04:12:04.981Z,69.06
2017-12-22T04:12:40.271Z,68.59
2017-12-22T04:13:15.619Z,68.59
2017-12-22T04:13:51.061Z,68.59
2017-12-22T04:14:26.151Z,68.30
2017-12-22T04:15:01.356Z,68.68
2017-12-22T04:15:36.736Z,69.15
2017-12-22T04:16:11.851Z,68.96
2017-12-22T04:16:47.123Z,68.93
2017-12-22T04:17:22.429Z,69.79
2017-12-22T04:17:57.809Z,69.50
2017-12-22T04:18:33.053Z,69.79
2017-12-22T04:19:08.262Z,69.73
2017-12-22T04:19:43.443Z,69.79
2017-12-22T04:20:18.749Z,69.79
2017-12-22T04:20:53.961Z,69.73
2017-12-22T04:21:29.379Z,69.69
2017-12-22T04:22:04.970Z,69.12
2017-12-22T04:22:40.474Z,69.63
2017-12-22T04:23:15.554Z,69.31
2017-12-22T04:23:50.802Z,69.35
2017-12-22T04:24:26.092Z,69.79
2017-12-22T04:25:01.392Z,69.35
2017-12-22T04:25:36.814Z,68.87
2017-12-22T04:26:12.317Z,68.87
2017-12-22T04:26:47.836Z,68.96
2017-12-22T04:27:23.311Z,69.21
2017-12-22T04:27:58.622Z,69.06
2017-12-22T04:28:33.911Z,69.06
2017-12-22T04:29:09.051Z,69.25
2017-12-22T04:29:44.445Z,69.15
2017-12-22T04:30:19.958Z,70.01
2017-12-22T04:30:55.279Z,70.26
2017-12-22T04:31:30.763Z,69.98
2017-12-22T04:32:05.998Z,70.07
2017-12-22T04:32:41.380Z,70.39
2017-12-22T04:33:16.890Z,69.69
2017-12-22T04:33:52.105Z,70.93
2017-12-22T04:34:27.619Z,70.45
2017-12-22T04:35:03.118Z,70.54
2017-12-22T04:35:38.933Z,70.26
2017-12-22T04:36:14.136Z,70.54
2017-12-22T04:36:49.527Z,70.74
2017-12-22T04:37:24.838Z,70.93
2017-12-22T04:38:00.122Z,70.83
2017-12-22T04:38:35.631Z,70.74
2017-12-22T04:39:10.947Z,70.45
2017-12-22T04:39:46.662Z,70.36
2017-12-22T04:40:21.750Z,70.54
2017-12-22T04:40:56.871Z,70.74
2017-12-22T04:41:32.187Z,70.36
2017-12-22T04:42:07.484Z,69.98
2017-12-22T04:42:42.501Z,70.45
2017-12-22T04:43:17.888Z,70.45
2017-12-22T04:43:53.026Z,70.26
2017-12-22T04:44:28.512Z,70.54
2017-12-22T04:45:04.225Z,70.26
2017-12-22T04:45:39.507Z,69.88
2017-12-22T04:46:14.916Z,69.69
2017-12-22T04:46:50.215Z,70.36
2017-12-22T04:47:25.629Z,70.26
2017-12-22T04:48:00.833Z,69.98
2017-12-22T04:48:36.226Z,70.45
2017-12-22T04:49:11.568Z,70.64
2017-12-22T04:49:47.059Z,70.54
2017-12-22T04:50:22.182Z,70.45
2017-12-22T04:50:57.396Z,70.83
2017-12-22T04:51:32.584Z,70.54
2017-12-22T04:52:08.273Z,70.83
2017-12-22T04:52:43.483Z,70.93
2017-12-22T04:53:19.005Z,70.93
2017-12-22T04:53:54.207Z,70.74
2017-12-22T04:54:29.251Z,70.45
2017-12-22T04:55:04.746Z,70.26
2017-12-22T04:55:40.264Z,70.83
2017-12-22T04:56:15.849Z,70.64
2017-12-22T04:56:51.062Z,70.64
2017-12-22T04:57:26.450Z,70.36
2017-12-22T04:58:01.661Z,70.45
2017-12-22T04:58:37.084Z,70.54
2017-12-22T04:59:12.692Z,70.74
2017-12-22T04:59:48.001Z,70.74
2017-12-22T05:00:23.386Z,70.45
2017-12-22T05:00:58.499Z,70.26
2017-12-22T05:01:34.045Z,69.98
2017-12-22T05:02:09.311Z,69.88
2017-12-22T05:02:44.696Z,69.88
2017-12-22T05:03:19.914Z,70.64
2017-12-22T05:03:55.138Z,70.93
2017-12-22T05:04:30.441Z,70.83
2017-12-22T05:05:05.949Z,70.74
2017-12-22T05:05:41.131Z,70.83
2017-12-22T05:06:16.547Z,71.02
2017-12-22T05:06:52.032Z,70.54
2017-12-22T05:07:27.546Z,70.83
2017-12-22T05:08:02.851Z,70.93
2017-12-22T05:08:38.057Z,71.12
2017-12-22T05:09:13.663Z,71.31
2017-12-22T05:09:49.168Z,70.93
2017-12-22T05:10:24.476Z,70.74
2017-12-22T05:10:59.771Z,70.93
2017-12-22T05:11:35.179Z,70.83
2017-12-22T05:12:10.466Z,70.74
2017-12-22T05:12:45.982Z,70.83
2017-12-22T05:13:21.173Z,70.93
2017-12-22T05:13:56.390Z,70.83
2017-12-22T05:14:31.599Z,70.64
2017-12-22T05:15:06.616Z,70.36
2017-12-22T05:15:41.730Z,70.36
2017-12-22T05:16:17.122Z,70.54
2017-12-22T05:16:52.434Z,70.74
2017-12-22T05:17:27.820Z,70.74
2017-12-22T05:18:03.030Z,69.88
2017-12-22T05:18:38.346Z,70.45
2017-12-22T05:19:13.762Z,69.98
2017-12-22T05:19:48.970Z,70.26
2017-12-22T05:20:23.990Z,70.74
2017-12-22T05:20:59.177Z,70.64
2017-12-22T05:21:34.703Z,70.74
2017-12-22T05:22:09.921Z,70.74
2017-12-22T05:22:45.612Z,70.36
2017-12-22T05:23:21.023Z,70.45
2017-12-22T05:23:56.307Z,70.54
2017-12-22T05:24:31.658Z,70.64
2017-12-22T05:25:07.046Z,70.54
2017-12-22T05:25:42.367Z,71.22
2017-12-22T05:26:17.947Z,70.83
2017-12-22T05:26:53.075Z,70.45
2017-12-22T05:27:28.797Z,70.45
2017-12-22T05:28:04.387Z,69.88
2017-12-22T05:28:39.810Z,70.45
2017-12-22T05:29:15.020Z,70.26
2017-12-22T05:29:50.362Z,70.17
2017-12-22T05:30:25.957Z,70.17
2017-12-22T05:31:01.176Z,70.36
2017-12-22T05:31:36.497Z,69.69
2017-12-22T05:32:11.617Z,70.36
2017-12-22T05:32:46.855Z,70.45
2017-12-22T05:33:22.250Z,70.07
2017-12-22T05:33:57.879Z,70.26
2017-12-22T05:34:33.901Z,69.88
2017-12-22T05:35:09.247Z,70.45
2017-12-22T05:35:44.747Z,70.54
2017-12-22T05:36:19.966Z,70.54
2017-12-22T05:36:55.286Z,70.64
2017-12-22T05:37:31.011Z,70.45
2017-12-22T05:38:06.337Z,70.45
2017-12-22T05:38:41.748Z,70.45
2017-12-22T05:39:17.255Z,70.83
2017-12-22T05:39:52.476Z,70.83
2017-12-22T05:40:27.577Z,70.93
2017-12-22T05:41:02.991Z,70.45
2017-12-22T05:41:38.318Z,70.54
2017-12-22T05:42:13.632Z,70.36
2017-12-22T05:42:49.244Z,70.54
2017-12-22T05:43:24.546Z,70.54
2017-12-22T05:44:00.068Z,70.45
2017-12-22T05:44:35.397Z,71.12
2017-12-22T05:45:10.792Z,70.93
2017-12-22T05:45:46.213Z,70.74
2017-12-22T05:46:21.692Z,70.74
2017-12-22T05:46:56.998Z,70.74
2017-12-22T05:47:32.212Z,70.45
2017-12-22T05:48:07.655Z,69.88
2017-12-22T05:48:43.064Z,69.69
2017-12-22T05:49:18.394Z,70.45
2017-12-22T05:49:53.657Z,70.26
2017-12-22T05:50:28.950Z,70.54
2017-12-22T05:51:04.365Z,70.07
2017-12-22T05:51:39.548Z,70.26
2017-12-22T05:52:15.078Z,70.45
2017-12-22T05:52:50.520Z,70.54
2017-12-22T05:53:26.146Z,70.17
2017-12-22T05:54:01.538Z,70.07
2017-12-22T05:54:36.856Z,70.26
2017-12-22T05:55:12.220Z,70.83
2017-12-22T05:55:47.527Z,70.64
2017-12-22T05:56:22.893Z,70.64
2017-12-22T05:56:58.263Z,70.83
2017-12-22T05:57:33.501Z,70.36
2017-12-22T05:58:08.995Z,70.54
2017-12-22T05:58:44.417Z,70.45
2017-12-22T05:59:19.747Z,70.64
2017-12-22T05:59:55.309Z,70.83
2017-12-22T06:00:30.630Z,70.45
2017-12-22T06:01:05.719Z,70.36
2017-12-22T06:01:41.532Z,70.54
2017-12-22T06:02:17.031Z,70.54
2017-12-22T06:02:52.157Z,70.54
2017-12-22T06:03:27.363Z,70.45
2017-12-22T06:04:02.584Z,70.45
2017-12-22T06:04:38.587Z,70.45
2017-12-22T06:05:13.927Z,70.45
2017-12-22T06:05:49.054Z,70.54
2017-12-22T06:06:24.453Z,70.54
2017-12-22T06:06:59.782Z,70.93
2017-12-22T06:07:34.992Z,70.45
2017-12-22T06:08:10.503Z,70.64
2017-12-22T06:08:45.805Z,70.45
2017-12-22T06:09:20.924Z,70.45
2017-12-22T06:09:56.532Z,70.36
2017-12-22T06:10:31.745Z,70.54
2017-12-22T06:11:06.932Z,70.54
2017-12-22T06:11:42.537Z,70.74
2017-12-22T06:12:17.742Z,70.93
2017-12-22T06:12:53.032Z,70.64
2017-12-22T06:13:28.462Z,70.74
2017-12-22T06:14:03.848Z,70.17
2017-12-22T06:14:39.358Z,69.88
2017-12-22T06:15:14.666Z,70.54
2017-12-22T06:15:50.073Z,70.74
2017-12-22T06:16:25.646Z,69.79
2017-12-22T06:17:01.259Z,69.88
2017-12-22T06:17:36.288Z,70.83
2017-12-22T06:18:11.769Z,70.74
2017-12-22T06:18:46.975Z,70.45
2017-12-22T06:19:22.264Z,70.54
2017-12-22T06:19:57.501Z,70.93
2017-12-22T06:20:32.889Z,70.83
2017-12-22T06:21:08.492Z,70.83
2017-12-22T06:21:43.778Z,70.74
2017-12-22T06:22:19.007Z,70.54
2017-12-22T06:22:54.785Z,70.64
2017-12-22T06:23:30.212Z,70.74
2017-12-22T06:24:05.414Z,70.54
2017-12-22T06:24:40.913Z,70.36
2017-12-22T06:25:16.353Z,70.36
2017-12-22T06:25:54.057Z,70.45
2017-12-22T06:26:29.376Z,70.54
2017-12-22T06:27:04.641Z,70.74
2017-12-22T06:27:39.949Z,70.45
2017-12-22T06:28:15.065Z,69.79
2017-12-22T06:28:50.359Z,69.88
2017-12-22T06:29:25.774Z,70.26
2017-12-22T06:30:01.062Z,70.45
2017-12-22T06:30:36.603Z,70.45
2017-12-22T06:31:11.984Z,70.26
2017-12-22T06:31:47.192Z,70.54
2017-12-22T06:32:22.373Z,70.54
2017-12-22T06:32:57.698Z,70.45
2017-12-22T06:33:33.116Z,70.36
2017-12-22T06:34:08.508Z,69.69
2017-12-22T06:34:43.723Z,70.26
2017-12-22T06:35:19.322Z,70.74
2017-12-22T06:35:54.633Z,69.69
2017-12-22T06:36:30.121Z,70.07
2017-12-22T06:37:05.336Z,69.88
2017-12-22T06:37:40.523Z,70.07
2017-12-22T06:38:15.830Z,70.45
2017-12-22T06:38:51.310Z,70.36
2017-12-22T06:39:26.615Z,69.69
2017-12-22T06:40:02.033Z,70.26
2017-12-22T06:40:37.553Z,70.36
2017-12-22T06:41:13.091Z,69.98
2017-12-22T06:41:48.260Z,70.54
2017-12-22T06:42:23.375Z,70.17
2017-12-22T06:42:58.761Z,70.17
2017-12-22T06:43:33.870Z,70.36
2017-12-22T06:44:09.150Z,70.26
2017-12-22T06:44:44.460Z,69.88
2017-12-22T06:45:19.800Z,69.88
2017-12-22T06:45:55.094Z,69.69
2017-12-22T06:46:30.502Z,70.17
2017-12-22T06:47:05.784Z,70.26
2017-12-22T06:47:40.996Z,69.79
2017-12-22T06:48:16.286Z,69.50
2017-12-22T06:48:51.691Z,70.26
2017-12-22T06:49:26.873Z,69.50
2017-12-22T06:50:02.095Z,69.50
2017-12-22T06:50:38.129Z,69.50
2017-12-22T06:51:13.314Z,69.50
2017-12-22T06:51:48.520Z,69.50
2017-12-22T06:52:23.803Z,69.41
2017-12-22T06:52:59.217Z,69.41
2017-12-22T06:53:34.403Z,69.50
2017-12-22T06:54:10.011Z,69.60
2017-12-22T06:54:45.505Z,69.50
2017-12-22T06:55:20.810Z,69.60
2017-12-22T06:55:56.011Z,69.79
2017-12-22T06:56:31.225Z,69.50
2017-12-22T06:57:06.443Z,69.41
2017-12-22T06:57:41.628Z,69.41
2017-12-22T06:58:16.846Z,69.69
2017-12-22T06:58:52.021Z,69.60
2017-12-22T06:59:27.741Z,69.50
2017-12-22T07:00:03.321Z,69.41
2017-12-22T07:00:39.446Z,69.50
2017-12-22T07:01:14.551Z,69.50
2017-12-22T07:01:50.467Z,69.69
2017-12-22T07:02:25.782Z,69.69
2017-12-22T07:03:01.060Z,69.60
2017-12-22T07:03:36.474Z,69.69
2017-12-22T07:04:11.849Z,69.21
2017-12-22T07:04:47.255Z,69.98
2017-12-22T07:05:22.745Z,69.31
2017-12-22T07:05:57.983Z,68.84
2017-12-22T07:06:33.271Z,69.12
2017-12-22T07:07:08.691Z,68.93
2017-12-22T07:07:46.001Z,69.31
2017-12-22T07:08:21.482Z,69.98
2017-12-22T07:08:56.991Z,69.02
2017-12-22T07:09:32.185Z,69.12
2017-12-22T07:10:07.494Z,68.84
2017-12-22T07:10:42.805Z,69.12
2017-12-22T07:11:18.605Z,69.12
2017-12-22T07:11:53.897Z,69.02
2017-12-22T07:12:29.598Z,68.84
2017-12-22T07:13:04.815Z,69.21
2017-12-22T07:13:41.204Z,69.02
2017-12-22T07:14:16.516Z,69.12
2017-12-22T07:14:51.912Z,69.02
2017-12-22T07:15:27.123Z,68.84
2017-12-22T07:16:02.733Z,69.21
2017-12-22T07:16:38.049Z,69.21
2017-12-22T07:17:13.835Z,69.21
2017-12-22T07:17:49.235Z,69.12
2017-12-22T07:18:24.547Z,69.02
2017-12-22T07:19:00.033Z,69.02
2017-12-22T07:19:35.543Z,69.21
2017-12-22T07:20:11.326Z,69.12
2017-12-22T07:20:47.056Z,69.02
2017-12-22T07:21:22.150Z,68.93
2017-12-22T07:21:57.364Z,69.02
2017-12-22T07:22:32.570Z,69.02
2017-12-22T07:23:07.786Z,68.93
2017-12-22T07:23:43.393Z,69.02
2017-12-22T07:24:18.484Z,69.02
2017-12-22T07:24:53.812Z,68.93
2017-12-22T07:25:29.383Z,68.84
2017-12-22T07:26:04.717Z,68.07
2017-12-22T07:26:40.409Z,68.27
2017-12-22T07:27:15.918Z,68.36
2017-12-22T07:27:51.597Z,68.17
2017-12-22T07:28:27.303Z,67.69
2017-12-22T07:29:02.678Z,67.50
2017-12-22T07:29:38.289Z,68.46
2017-12-22T07:30:13.802Z,67.60
2017-12-22T07:30:49.116Z,67.79
2017-12-22T07:31:24.825Z,67.41
2017-12-22T07:32:00.204Z,67.09
2017-12-22T07:32:35.612Z,67.60
2017-12-22T07:33:10.791Z,66.84
2017-12-22T07:33:46.394Z,66.84
2017-12-22T07:34:22.076Z,66.65
2017-12-22T07:34:57.678Z,66.36
2017-12-22T07:35:33.305Z,66.33